Time;durP1;ratioP1;P1;durP2;ratioP2;P2;SDS_P1;SDS_P2;PMS_P1;PMS_P2;Temp;Humidity;BMP_temperature;BMP_pressure;BME280_temperature;BME280_humidity;BME280_pressure;Samples;Min_cycle;Max_cycle;Signal;HPM_P1;HPM_P2
2021/03/10 00:02:05;;;;;;;0.38;0.38;;;3.30;87.70;;;;;;5115547;28;20062;-77
2021/03/10 00:04:31;;;;;;;1.00;0.60;;;3.30;87.70;;;;;;5095021;28;20036;-77
2021/03/10 00:06:57;;;;;;;0.75;0.38;;;3.20;87.80;;;;;;5115416;28;20039;-77
2021/03/10 00:09:23;;;;;;;0.68;0.60;;;3.20;87.90;;;;;;5097346;28;20104;-77
2021/03/10 00:11:49;;;;;;;0.70;0.47;;;3.20;87.90;;;;;;5115269;28;20444;-77
2021/03/10 00:14:15;;;;;;;1.10;0.60;;;3.20;88.00;;;;;;5114905;28;20114;-77
2021/03/10 00:16:40;;;;;;;0.65;0.50;;;3.10;87.90;;;;;;5114919;28;20489;-77
2021/03/10 00:19:06;;;;;;;1.08;0.80;;;3.20;87.90;;;;;;5115240;28;20085;-77
2021/03/10 00:21:32;;;;;;;0.63;0.43;;;3.10;87.90;;;;;;5094986;28;20076;-77
2021/03/10 00:23:58;;;;;;;1.20;0.52;;;3.10;87.80;;;;;;5115068;28;20044;-77
2021/03/10 00:26:23;;;;;;;0.85;0.40;;;3.10;87.80;;;;;;5115300;28;20044;-77
2021/03/10 00:28:49;;;;;;;0.80;0.60;;;3.20;87.80;;;;;;5115248;28;20046;-77
2021/03/10 00:31:15;;;;;;;1.05;0.65;;;3.10;87.70;;;;;;5114905;28;20539;-77
2021/03/10 00:33:41;;;;;;;0.77;0.52;;;3.20;87.60;;;;;;5115009;28;20088;-77
2021/03/10 00:36:07;;;;;;;0.85;0.60;;;3.20;87.40;;;;;;5096484;28;20139;-77
2021/03/10 00:38:33;;;;;;;0.90;0.52;;;3.20;87.30;;;;;;5114522;28;20070;-77
2021/03/10 00:40:58;;;;;;;0.95;0.70;;;3.20;87.30;;;;;;5114801;28;20074;-77
2021/03/10 00:43:24;;;;;;;0.80;0.60;;;3.20;87.30;;;;;;5114544;28;20405;-77
2021/03/10 00:45:50;;;;;;;0.40;0.40;;;3.20;87.20;;;;;;5114436;28;20404;-77
2021/03/10 00:48:18;;;;;;;1.42;0.60;;;3.30;87.20;;;;;;5115096;28;20607;-78
2021/03/10 00:50:44;;;;;;;0.88;0.50;;;3.20;87.10;;;;;;5096018;28;20059;-77
2021/03/10 00:53:10;;;;;;;1.00;0.50;;;3.10;87.10;;;;;;5114749;28;20071;-77
2021/03/10 00:55:36;;;;;;;1.25;0.65;;;3.10;87.20;;;;;;5114494;28;20512;-77
2021/03/10 00:58:01;;;;;;;1.90;0.98;;;3.10;87.30;;;;;;5114446;28;20118;-77
2021/03/10 01:00:27;;;;;;;0.95;0.65;;;3.00;87.30;;;;;;5114677;28;20516;-77
2021/03/10 01:02:53;;;;;;;0.70;0.70;;;3.10;87.50;;;;;;5096806;28;20464;-77
2021/03/10 01:05:18;;;;;;;1.10;0.63;;;3.00;87.50;;;;;;5114483;28;20047;-77
2021/03/10 01:07:44;;;;;;;1.30;0.65;;;2.90;87.60;;;;;;5096047;28;20070;-77
2021/03/10 01:10:11;;;;;;;1.17;0.60;;;2.90;87.60;;;;;;5114503;28;20048;-77
2021/03/10 01:12:38;;;;;;;0.77;0.40;;;2.90;87.70;;;;;;5114330;28;20504;-77
2021/03/10 01:15:07;;;;;;;1.23;0.60;;;2.80;87.60;;;;;;5114583;28;20039;-76
2021/03/10 01:17:33;;;;;;;0.95;0.55;;;2.80;87.70;;;;;;5095750;28;20054;-76
2021/03/10 01:19:59;;;;;;;1.38;0.80;;;2.80;87.80;;;;;;5114477;28;20027;-76
2021/03/10 01:22:24;;;;;;;1.02;0.70;;;2.80;87.80;;;;;;5114110;28;20067;-76
2021/03/10 01:24:50;;;;;;;0.70;0.55;;;2.70;87.80;;;;;;5114093;28;20118;-77
2021/03/10 01:27:17;;;;;;;0.65;0.52;;;2.70;87.80;;;;;;5113885;28;20533;-77
2021/03/10 01:29:44;;;;;;;0.75;0.52;;;2.70;87.80;;;;;;5094310;28;20043;-76
2021/03/10 01:32:10;;;;;;;0.70;0.60;;;2.70;87.80;;;;;;5113914;28;20040;-77
2021/03/10 01:34:36;;;;;;;1.33;0.70;;;2.70;87.80;;;;;;5095418;28;20039;-77
2021/03/10 01:37:02;;;;;;;1.15;0.57;;;2.60;87.80;;;;;;5113961;28;20123;-77
2021/03/10 01:39:28;;;;;;;1.20;0.68;;;2.60;87.80;;;;;;5095837;28;20051;-77
2021/03/10 01:41:56;;;;;;;0.77;0.47;;;2.60;87.80;;;;;;5113524;28;20036;-77
2021/03/10 01:44:21;;;;;;;1.20;0.70;;;2.60;87.90;;;;;;5113582;28;20089;-76
2021/03/10 01:46:47;;;;;;;0.93;0.50;;;2.60;87.80;;;;;;5114236;28;20039;-76
2021/03/10 01:49:13;;;;;;;1.20;0.60;;;2.60;87.80;;;;;;5113848;28;20481;-76
2021/03/10 01:51:38;;;;;;;0.73;0.60;;;2.60;87.80;;;;;;5095274;28;20122;-76
2021/03/10 01:54:05;;;;;;;0.52;0.35;;;2.50;87.80;;;;;;5113438;28;20043;-76
2021/03/10 01:56:31;;;;;;;1.10;0.60;;;2.50;87.80;;;;;;5095500;28;20423;-76
2021/03/10 01:58:57;;;;;;;1.10;0.63;;;2.40;87.90;;;;;;5113882;28;20059;-76
2021/03/10 02:01:23;;;;;;;0.55;0.40;;;2.40;88.00;;;;;;5094471;28;20055;-76
2021/03/10 02:03:48;;;;;;;0.50;0.50;;;2.40;88.00;;;;;;5113618;28;20051;-76
2021/03/10 02:06:32;;;;;;;1.17;0.80;;;2.30;88.00;;;;;;5113437;28;20047;-76
2021/03/10 02:09:04;;;;;;;0.80;0.50;;;2.30;88.10;;;;;;5095084;28;20039;-75
2021/03/10 02:11:36;;;;;;;0.90;0.70;;;2.30;88.10;;;;;;5095246;28;20036;-75
2021/03/10 02:14:19;;;;;;;0.80;0.50;;;2.30;88.10;;;;;;5062068;28;20386;-75
2021/03/10 02:16:51;;;;;;;0.68;0.50;;;2.30;88.10;;;;;;5094250;28;20378;-75
2021/03/10 02:19:56;;;;;;;1.55;0.88;;;2.20;88.10;;;;;;5113323;28;20066;-76
2021/03/10 02:22:46;;;;;;;0.82;0.50;;;2.20;88.10;;;;;;5098047;28;20043;-76
2021/03/10 02:25:39;;;;;;;0.52;0.38;;;2.20;88.10;;;;;;5112918;28;20049;-75
2021/03/10 02:28:06;;;;;;;0.85;0.40;;;2.10;88.10;;;;;;5112893;28;20440;-76
2021/03/10 02:30:37;;;;;;;1.05;0.70;;;2.10;88.10;;;;;;5113279;28;20115;-75
2021/03/10 02:33:09;;;;;;;0.43;0.30;;;2.20;88.20;;;;;;5113663;28;20035;-75
2021/03/10 02:35:39;;;;;;;0.45;0.38;;;2.10;88.10;;;;;;5094681;28;20184;-76
2021/03/10 02:38:08;;;;;;;0.40;0.30;;;2.10;88.20;;;;;;5113119;28;20050;-75
2021/03/10 02:40:38;;;;;;;0.50;0.40;;;2.10;88.20;;;;;;5113128;28;20044;-75
2021/03/10 02:43:05;;;;;;;0.70;0.30;;;2.10;88.20;;;;;;5095027;28;20039;-75
2021/03/10 02:45:32;;;;;;;0.98;0.50;;;2.10;88.10;;;;;;5113160;28;20089;-75
2021/03/10 02:48:00;;;;;;;0.90;0.40;;;2.10;88.00;;;;;;5112673;28;20050;-75
2021/03/10 02:50:26;;;;;;;1.05;0.50;;;2.10;88.00;;;;;;5094447;28;20398;-75
2021/03/10 02:52:53;;;;;;;0.60;0.50;;;2.10;87.90;;;;;;5112367;28;20078;-75
2021/03/10 02:55:19;;;;;;;0.57;0.40;;;2.20;88.00;;;;;;5113262;28;20035;-75
2021/03/10 02:57:45;;;;;;;0.70;0.50;;;2.20;87.90;;;;;;5112820;28;20031;-76
2021/03/10 03:00:18;;;;;;;0.55;0.32;;;2.30;87.90;;;;;;5113045;28;20039;-76
2021/03/10 03:02:44;;;;;;;0.93;0.40;;;2.20;87.80;;;;;;5112925;28;20192;-76
2021/03/10 03:05:10;;;;;;;0.60;0.50;;;2.20;87.70;;;;;;5112408;28;20507;-76
2021/03/10 03:07:38;;;;;;;0.80;0.50;;;2.30;87.70;;;;;;5112568;28;20088;-75
2021/03/10 03:10:08;;;;;;;0.90;0.55;;;2.30;87.60;;;;;;5094320;28;20401;-76
2021/03/10 03:12:35;;;;;;;1.20;0.80;;;2.30;87.60;;;;;;5113133;28;20036;-76
2021/03/10 03:15:03;;;;;;;1.23;0.60;;;2.30;87.50;;;;;;5093967;28;20036;-76
2021/03/10 03:17:31;;;;;;;0.82;0.80;;;2.40;87.50;;;;;;5112158;28;20059;-76
2021/03/10 03:19:57;;;;;;;0.77;0.57;;;2.50;87.50;;;;;;5112762;28;20035;-76
2021/03/10 03:22:24;;;;;;;0.80;0.50;;;2.40;87.40;;;;;;5112301;28;20036;-76
2021/03/10 03:24:51;;;;;;;1.23;0.60;;;2.40;87.30;;;;;;5112494;28;20044;-76
2021/03/10 03:27:27;;;;;;;0.73;0.45;;;2.50;87.30;;;;;;5113345;28;20043;-76
2021/03/10 03:29:55;;;;;;;0.55;0.50;;;2.50;87.20;;;;;;5115684;28;20054;-75
2021/03/10 03:32:24;;;;;;;0.80;0.55;;;2.60;87.10;;;;;;5115803;28;20031;-76
2021/03/10 03:34:50;;;;;;;1.30;0.60;;;2.60;87.10;;;;;;5115737;28;20039;-76
2021/03/10 03:37:16;;;;;;;0.68;0.47;;;2.60;87.00;;;;;;5115741;28;20531;-76
2021/03/10 03:39:43;;;;;;;0.47;0.47;;;2.70;87.00;;;;;;5115543;28;20062;-76
2021/03/10 03:42:09;;;;;;;0.68;0.40;;;2.70;87.00;;;;;;5115683;28;20048;-76
2021/03/10 03:44:34;;;;;;;0.73;0.52;;;2.70;86.90;;;;;;5115697;28;20088;-76
2021/03/10 03:47:01;;;;;;;0.98;0.60;;;2.70;86.90;;;;;;5080510;28;20529;-76
2021/03/10 03:49:27;;;;;;;1.02;0.60;;;2.80;86.90;;;;;;5115587;28;20074;-76
2021/03/10 03:51:52;;;;;;;0.73;0.50;;;2.80;86.90;;;;;;5095222;28;20067;-75
2021/03/10 03:54:18;;;;;;;0.50;0.40;;;2.80;86.90;;;;;;5097215;28;20054;-76
2021/03/10 03:56:44;;;;;;;1.05;0.60;;;2.90;86.90;;;;;;5095980;28;20140;-76
2021/03/10 03:59:09;;;;;;;0.70;0.45;;;2.90;86.90;;;;;;5095911;28;20043;-76
2021/03/10 04:01:35;;;;;;;0.55;0.30;;;2.90;86.80;;;;;;5115351;28;20054;-76
2021/03/10 04:04:01;;;;;;;0.20;0.20;;;3.00;86.80;;;;;;5115406;28;20047;-76
2021/03/10 04:06:26;;;;;;;0.30;0.30;;;3.00;86.70;;;;;;5115417;28;20558;-76
2021/03/10 04:08:52;;;;;;;0.57;0.45;;;3.00;86.70;;;;;;5096891;28;20040;-76
2021/03/10 04:11:18;;;;;;;0.88;0.57;;;3.00;86.70;;;;;;5114908;28;20041;-76
2021/03/10 04:13:44;;;;;;;1.02;0.40;;;3.10;86.70;;;;;;5097155;28;20378;-76
2021/03/10 04:16:09;;;;;;;1.10;0.50;;;3.10;86.70;;;;;;5096816;28;20401;-76
2021/03/10 04:18:37;;;;;;;0.30;0.30;;;3.10;86.70;;;;;;5114849;28;20134;-76
2021/03/10 04:21:04;;;;;;;0.82;0.50;;;3.10;86.70;;;;;;5115118;28;20556;-76
2021/03/10 04:23:30;;;;;;;0.73;0.60;;;3.20;86.70;;;;;;5115097;28;20036;-76
2021/03/10 04:25:55;;;;;;;0.90;0.82;;;3.10;86.60;;;;;;5114683;28;20055;-76
2021/03/10 04:28:21;;;;;;;1.63;0.75;;;3.20;86.70;;;;;;5114902;28;20035;-76
2021/03/10 04:30:47;;;;;;;1.05;0.60;;;3.20;86.60;;;;;;5079767;28;20043;-76
2021/03/10 04:33:12;;;;;;;0.85;0.50;;;3.20;86.60;;;;;;5114795;28;20039;-76
2021/03/10 04:35:38;;;;;;;0.75;0.60;;;3.30;86.70;;;;;;5096698;28;20039;-76
2021/03/10 04:38:04;;;;;;;0.50;0.40;;;3.40;86.70;;;;;;5114279;28;20036;-77
2021/03/10 04:40:29;;;;;;;1.17;0.55;;;3.30;86.70;;;;;;5114729;28;20040;-76
2021/03/10 04:42:55;;;;;;;1.13;0.68;;;3.30;86.70;;;;;;5079773;28;20504;-76
2021/03/10 04:45:21;;;;;;;0.70;0.50;;;3.30;86.70;;;;;;5114458;28;20047;-76
2021/03/10 04:47:47;;;;;;;0.50;0.30;;;3.50;86.80;;;;;;5114725;28;20047;-76
2021/03/10 04:50:14;;;;;;;1.00;0.50;;;3.30;86.70;;;;;;5114992;28;20027;-76
2021/03/10 04:52:40;;;;;;;0.90;0.45;;;3.30;86.70;;;;;;5114447;28;20586;-77
2021/03/10 04:55:07;;;;;;;0.95;0.60;;;3.40;86.70;;;;;;5115003;28;20039;-76
2021/03/10 04:57:33;;;;;;;0.82;0.43;;;3.40;86.70;;;;;;5114350;28;20071;-77
2021/03/10 04:59:59;;;;;;;0.98;0.50;;;3.40;86.70;;;;;;5096158;28;20472;-76
2021/03/10 05:02:25;;;;;;;0.55;0.52;;;3.40;86.70;;;;;;5114916;28;20059;-77
2021/03/10 05:04:50;;;;;;;0.73;0.30;;;3.50;86.70;;;;;;5114426;28;20485;-77
2021/03/10 05:07:16;;;;;;;1.08;0.40;;;3.50;86.70;;;;;;5114293;28;20046;-77
2021/03/10 05:09:42;;;;;;;0.40;0.40;;;3.50;86.70;;;;;;5114805;28;20560;-77
2021/03/10 05:12:09;;;;;;;0.73;0.50;;;3.50;86.70;;;;;;5114540;28;20043;-76
2021/03/10 05:14:35;;;;;;;0.50;0.40;;;3.50;86.60;;;;;;5114372;28;20046;-76
2021/03/10 05:17:01;;;;;;;0.65;0.50;;;3.50;86.60;;;;;;5114357;28;20039;-76
2021/03/10 05:19:26;;;;;;;0.85;0.68;;;3.50;86.70;;;;;;5114058;28;20067;-77
2021/03/10 05:21:52;;;;;;;1.40;0.60;;;3.50;86.70;;;;;;5114180;28;20052;-77
2021/03/10 05:24:18;;;;;;;1.10;0.60;;;3.50;86.80;;;;;;5114316;28;20500;-77
2021/03/10 05:26:44;;;;;;;1.10;0.60;;;3.50;86.80;;;;;;5114080;28;20036;-77
2021/03/10 05:29:10;;;;;;;0.55;0.45;;;3.50;86.90;;;;;;5095637;28;20073;-77
2021/03/10 05:31:35;;;;;;;0.85;0.50;;;3.60;87.00;;;;;;5114438;28;20035;-77
2021/03/10 05:34:01;;;;;;;0.55;0.47;;;3.50;86.90;;;;;;5114241;28;20048;-77
2021/03/10 05:36:27;;;;;;;0.52;0.50;;;3.60;87.00;;;;;;5114217;28;20118;-77
2021/03/10 05:38:53;;;;;;;0.88;0.60;;;3.60;87.00;;;;;;5094427;28;20131;-77
2021/03/10 05:41:18;;;;;;;0.90;0.50;;;3.50;87.00;;;;;;5114103;28;20042;-77
2021/03/10 05:43:44;;;;;;;0.68;0.50;;;3.60;87.00;;;;;;5113863;28;20442;-77
2021/03/10 05:46:11;;;;;;;1.20;0.60;;;3.70;87.10;;;;;;5113939;28;20435;-77
2021/03/10 05:48:37;;;;;;;1.23;0.82;;;3.70;87.10;;;;;;5113958;28;20127;-77
2021/03/10 05:51:04;;;;;;;0.52;0.40;;;3.60;87.00;;;;;;5112790;28;20533;-77
2021/03/10 05:53:36;;;;;;;0.70;0.57;;;3.70;87.10;;;;;;5114322;28;20122;-77
2021/03/10 05:56:03;;;;;;;0.50;0.50;;;3.70;87.00;;;;;;5096008;28;20067;-77
2021/03/10 05:58:29;;;;;;;1.45;0.70;;;3.70;87.00;;;;;;5113996;28;20048;-76
2021/03/10 06:00:54;;;;;;;0.77;0.50;;;3.70;86.90;;;;;;5113756;28;20044;-77
2021/03/10 06:03:20;;;;;;;0.73;0.52;;;3.60;87.50;;;;;;5113534;28;20044;-77
2021/03/10 06:05:57;;;;;;;0.95;0.60;;;3.70;86.90;;;;;;5095888;28;20054;-77
2021/03/10 06:08:28;;;;;;;0.57;0.50;;;3.70;86.90;;;;;;5114316;28;20108;-77
2021/03/10 06:10:54;;;;;;;0.55;0.52;;;3.80;86.90;;;;;;5093660;28;20045;-77
2021/03/10 06:13:29;;;;;;;0.75;0.60;;;3.80;86.90;;;;;;5078225;28;20040;-77
2021/03/10 06:15:57;;;;;;;0.98;0.50;;;3.80;87.00;;;;;;5113648;28;20040;-77
2021/03/10 06:18:31;;;;;;;0.82;0.60;;;3.80;86.90;;;;;;5113375;28;20092;-77
2021/03/10 06:21:17;;;;;;;1.60;0.77;;;3.80;87.00;;;;;;5095170;28;20068;-77
2021/03/10 06:23:57;;;;;;;0.63;0.57;;;3.80;87.00;;;;;;5113171;28;20044;-77
2021/03/10 06:26:25;;;;;;;0.80;0.50;;;3.80;87.10;;;;;;5113113;28;20044;-77
2021/03/10 06:28:51;;;;;;;1.50;0.73;;;3.80;87.00;;;;;;5113296;28;20039;-77
2021/03/10 06:31:31;;;;;;;0.75;0.47;;;3.80;87.10;;;;;;5094802;28;20039;-77
2021/03/10 06:34:13;;;;;;;1.00;0.68;;;3.70;87.10;;;;;;5113330;28;20039;-77
2021/03/10 06:36:48;;;;;;;0.52;0.52;;;3.80;87.10;;;;;;5113281;28;20122;-77
2021/03/10 06:39:25;;;;;;;0.85;0.50;;;3.80;87.00;;;;;;5113062;28;20039;-77
2021/03/10 06:41:51;;;;;;;1.10;0.70;;;3.90;87.10;;;;;;5112893;28;20047;-77
2021/03/10 06:44:21;;;;;;;0.65;0.45;;;3.80;87.00;;;;;;5077790;28;20046;-77
2021/03/10 06:46:51;;;;;;;1.10;0.70;;;3.90;87.10;;;;;;5094497;28;20046;-77
2021/03/10 06:49:16;;;;;;;0.80;0.65;;;3.90;87.10;;;;;;5094837;28;20032;-77
2021/03/10 06:52:00;;;;;;;0.73;0.50;;;3.90;87.10;;;;;;5112986;28;20045;-77
2021/03/10 06:54:29;;;;;;;0.65;0.50;;;4.00;87.70;;;;;;5094814;28;20032;-77
2021/03/10 06:57:10;;;;;;;0.73;0.52;;;4.00;87.70;;;;;;5112642;28;20035;-77
2021/03/10 06:59:42;;;;;;;0.90;0.50;;;4.00;87.10;;;;;;5113245;28;20055;-77
2021/03/10 07:02:24;;;;;;;0.73;0.55;;;4.10;87.00;;;;;;5112709;28;20548;-77
2021/03/10 07:04:52;;;;;;;1.15;0.55;;;4.00;87.00;;;;;;5112619;28;20540;-76
2021/03/10 07:07:18;;;;;;;0.93;0.77;;;4.10;87.00;;;;;;5112384;28;20055;-77
2021/03/10 07:09:45;;;;;;;2.53;1.25;;;4.10;87.00;;;;;;5112592;28;20389;-77
2021/03/10 07:12:14;;;;;;;2.22;1.38;;;4.10;86.90;;;;;;5112382;28;20063;-77
2021/03/10 07:14:40;;;;;;;3.15;1.60;;;4.30;86.90;;;;;;5112425;28;20039;-75
2021/03/10 07:17:15;;;;;;;4.13;2.00;;;4.30;86.80;;;;;;5092656;28;20044;-77
2021/03/10 07:19:42;;;;;;;4.03;1.88;;;4.40;86.70;;;;;;5111668;28;20386;-77
2021/03/10 07:22:17;;;;;;;4.30;1.88;;;4.50;86.60;;;;;;5093166;28;20039;-77
2021/03/10 07:25:05;;;;;;;3.95;1.80;;;4.60;86.50;;;;;;5112985;28;20123;-77
2021/03/10 07:27:46;;;;;;;4.40;2.15;;;4.60;86.30;;;;;;5112330;28;20067;-77
2021/03/10 07:30:13;;;;;;;3.92;1.77;;;4.70;86.30;;;;;;5112443;28;20031;-77
2021/03/10 07:32:39;;;;;;;5.13;2.25;;;4.80;86.20;;;;;;5112183;28;20039;-77
2021/03/10 07:35:07;;;;;;;4.05;2.22;;;4.80;86.20;;;;;;5112281;28;20130;-77
2021/03/10 07:37:34;;;;;;;5.28;2.28;;;4.90;86.20;;;;;;5112159;28;20044;-78
2021/03/10 07:40:11;;;;;;;5.25;2.40;;;4.90;86.10;;;;;;5112375;28;20100;-77
2021/03/10 07:42:54;;;;;;;3.78;1.98;;;4.90;86.20;;;;;;5094164;28;20063;-77
2021/03/10 07:45:22;;;;;;;5.57;2.50;;;4.90;86.10;;;;;;5112128;28;20039;-77
2021/03/10 07:47:49;;;;;;;6.90;2.42;;;5.10;86.10;;;;;;5092935;28;20068;-76
2021/03/10 07:50:15;;;;;;;4.72;2.40;;;5.10;86.10;;;;;;5112625;28;20038;-77
2021/03/10 07:52:51;;;;;;;6.68;2.78;;;5.10;86.10;;;;;;5093149;28;20135;-77
2021/03/10 07:55:17;;;;;;;6.68;2.75;;;5.30;86.30;;;;;;5112055;28;20039;-76
2021/03/10 07:57:52;;;;;;;5.22;2.45;;;5.20;86.20;;;;;;5076706;28;20374;-76
2021/03/10 08:00:19;;;;;;;4.45;2.10;;;5.20;86.30;;;;;;5111891;28;20062;-79
2021/03/10 08:02:48;;;;;;;5.65;2.53;;;5.30;86.30;;;;;;5112295;28;20036;-76
2021/03/10 08:05:25;;;;;;;4.10;1.88;;;5.30;86.30;;;;;;5111622;28;20042;-76
2021/03/10 08:08:14;;;;;;;4.20;1.85;;;5.30;86.40;;;;;;5112205;28;20052;-76
2021/03/10 08:10:41;;;;;;;4.40;1.90;;;5.40;86.40;;;;;;5111546;28;20039;-78
2021/03/10 08:13:22;;;;;;;5.20;2.35;;;5.40;86.30;;;;;;5112062;28;20114;-75
2021/03/10 08:15:48;;;;;;;3.28;1.75;;;5.50;86.50;;;;;;5114951;28;20042;-76
2021/03/10 08:18:19;;;;;;;5.10;2.20;;;5.50;86.30;;;;;;5114929;28;20051;-75
2021/03/10 08:20:45;;;;;;;4.70;2.42;;;5.50;86.40;;;;;;5115068;28;20485;-75
2021/03/10 08:23:11;;;;;;;4.05;1.88;;;5.60;87.00;;;;;;5096935;28;20047;-76
2021/03/10 08:25:37;;;;;;;3.92;1.95;;;5.60;86.40;;;;;;5115207;28;20481;-77
2021/03/10 08:28:12;;;;;;;6.25;3.13;;;5.70;86.40;;;;;;5115261;28;20043;-74
2021/03/10 08:30:38;;;;;;;5.13;2.58;;;5.70;86.40;;;;;;5114978;28;20458;-74
2021/03/10 08:33:05;;;;;;;5.25;2.53;;;5.70;86.30;;;;;;5114831;28;20470;-75
2021/03/10 08:35:31;;;;;;;5.47;2.70;;;5.70;86.30;;;;;;5096031;28;20048;-75
2021/03/10 08:38:00;;;;;;;8.07;3.67;;;5.80;86.30;;;;;;5114568;28;20043;-75
2021/03/10 08:40:29;;;;;;;9.70;4.47;;;5.80;86.30;;;;;;5079224;28;20040;-76
2021/03/10 08:42:58;;;;;;;6.57;3.42;;;5.80;86.30;;;;;;5115046;28;20039;-78
2021/03/10 08:45:34;;;;;;;6.75;3.40;;;5.90;86.30;;;;;;5095267;28;20032;-76
2021/03/10 08:48:04;;;;;;;6.95;3.67;;;5.80;86.30;;;;;;5095770;28;20048;-76
2021/03/10 08:50:45;;;;;;;8.00;4.25;;;5.90;86.30;;;;;;5114624;28;20045;-76
2021/03/10 08:53:13;;;;;;;7.88;4.00;;;5.90;86.20;;;;;;5114504;28;20047;-77
2021/03/10 08:55:40;;;;;;;8.10;4.53;;;6.00;86.20;;;;;;5114703;28;20123;-76
2021/03/10 08:58:11;;;;;;;8.68;4.45;;;6.10;86.20;;;;;;5114596;28;20062;-76
2021/03/10 09:00:37;;;;;;;;;;;6.10;86.20;;;;;;5115021;28;20396;-76
2021/03/10 09:03:18;;;;;;;7.88;4.22;;;6.10;86.10;;;;;;5114550;28;19919;-75
2021/03/10 09:05:45;;;;;;;8.77;4.07;;;6.20;86.10;;;;;;5114498;28;20096;-76
2021/03/10 09:08:14;;;;;;;6.57;3.63;;;6.20;86.00;;;;;;5114235;28;20032;-75
2021/03/10 09:10:50;;;;;;;9.35;4.20;;;6.20;86.00;;;;;;5114201;28;20050;-76
2021/03/10 09:13:18;;;;;;;8.85;4.60;;;6.30;86.00;;;;;;5114822;28;20027;-78
2021/03/10 09:15:44;;;;;;;8.07;4.00;;;6.30;86.00;;;;;;5114406;28;20039;-75
2021/03/10 09:18:10;;;;;;;6.35;3.63;;;6.30;86.00;;;;;;5096364;28;20079;-76
2021/03/10 09:20:38;;;;;;;7.47;3.75;;;6.30;86.00;;;;;;5114317;28;20046;-76
2021/03/10 09:23:05;;;;;;;6.70;3.38;;;6.50;86.10;;;;;;5113855;28;20043;-75
2021/03/10 09:25:33;;;;;;;6.18;3.38;;;6.50;86.00;;;;;;5114127;28;20044;-75
2021/03/10 09:28:03;;;;;;;5.53;2.80;;;6.50;85.90;;;;;;5113851;28;20040;-74
2021/03/10 09:30:31;;;;;;;6.45;2.95;;;6.60;85.90;;;;;;5114277;28;20036;-74
2021/03/10 09:32:57;;;;;;;4.95;2.58;;;6.70;86.00;;;;;;5113655;28;20036;-75
2021/03/10 09:35:36;;;;;;;6.80;3.42;;;6.80;85.90;;;;;;5113930;28;20054;-73
2021/03/10 09:38:04;;;;;;;5.55;2.92;;;6.80;85.80;;;;;;5114344;28;20492;-75
2021/03/10 09:40:45;;;;;;;6.18;3.05;;;6.90;85.80;;;;;;5113822;28;20038;-75
2021/03/10 09:43:15;;;;;;;5.13;2.72;;;7.00;85.80;;;;;;5113922;28;20085;-73
2021/03/10 09:45:42;;;;;;;6.47;3.00;;;7.10;85.70;;;;;;5113544;28;20075;-72
2021/03/10 09:48:11;;;;;;;6.28;3.25;;;7.10;85.60;;;;;;5113375;28;20066;-72
2021/03/10 09:50:41;;;;;;;7.68;3.33;;;7.10;85.60;;;;;;5113957;28;20122;-73
2021/03/10 09:53:18;;;;;;;5.50;2.92;;;7.30;85.70;;;;;;5113371;28;20036;-74
2021/03/10 09:55:45;;;;;;;4.43;2.38;;;7.10;85.60;;;;;;5095136;28;20050;-73
2021/03/10 09:58:12;;;;;;;7.13;3.03;;;7.20;85.60;;;;;;5113341;28;20047;-72
2021/03/10 10:00:41;;;;;;;6.85;3.17;;;7.30;85.60;;;;;;5113743;28;20051;-73
2021/03/10 10:03:07;;;;;;;7.80;4.10;;;7.30;85.40;;;;;;5095036;28;20066;-73
2021/03/10 10:05:36;;;;;;;6.25;3.25;;;7.20;85.40;;;;;;5113104;28;20374;-74
2021/03/10 10:08:04;;;;;;;5.75;2.92;;;7.30;85.60;;;;;;5113289;28;20393;-72
2021/03/10 10:10:31;;;;;;;5.80;2.80;;;7.40;85.50;;;;;;5113287;28;20481;-72
2021/03/10 10:12:57;;;;;;;5.93;3.17;;;7.50;85.40;;;;;;5113280;28;20039;-72
2021/03/10 10:15:26;;;;;;;4.82;2.42;;;7.50;85.30;;;;;;5094118;28;20097;-73
2021/03/10 10:17:54;;;;;;;6.53;3.50;;;7.50;85.40;;;;;;5113719;28;20043;-72
2021/03/10 10:20:23;;;;;;;6.43;3.40;;;7.60;85.30;;;;;;5113172;28;20558;-74
2021/03/10 10:22:51;;;;;;;5.65;3.17;;;7.60;85.20;;;;;;5093199;28;20155;-72
2021/03/10 10:25:17;;;;;;;6.63;3.40;;;7.60;85.20;;;;;;5113132;28;20032;-72
2021/03/10 10:27:45;;;;;;;6.25;3.50;;;7.60;85.20;;;;;;5113235;28;20050;-74
2021/03/10 10:30:14;;;;;;;6.63;3.53;;;7.60;85.20;;;;;;5113458;28;20054;-73
2021/03/10 10:32:42;;;;;;;6.30;3.38;;;7.70;85.20;;;;;;5113048;28;20463;-74
2021/03/10 10:35:09;;;;;;;6.05;3.35;;;7.70;85.10;;;;;;5112874;28;20039;-73
2021/03/10 10:37:35;;;;;;;5.50;3.00;;;7.80;85.10;;;;;;5112353;28;20569;-72
2021/03/10 10:40:01;;;;;;;5.82;3.00;;;7.80;84.90;;;;;;5112724;28;20047;-72
2021/03/10 10:42:26;;;;;;;7.35;3.75;;;7.90;84.80;;;;;;5112716;28;20067;-72
2021/03/10 10:44:53;;;;;;;7.80;4.18;;;8.00;84.70;;;;;;5112571;28;20044;-72
2021/03/10 10:47:19;;;;;;;7.05;3.95;;;8.10;84.60;;;;;;5112448;28;20512;-72
2021/03/10 10:49:45;;;;;;;7.93;4.45;;;8.10;84.60;;;;;;5112854;28;20123;-72
2021/03/10 10:52:11;;;;;;;7.65;4.03;;;8.20;84.40;;;;;;5113037;28;20529;-72
2021/03/10 10:54:37;;;;;;;7.88;3.83;;;8.30;84.40;;;;;;5113021;28;20126;-73
2021/03/10 10:57:03;;;;;;;8.77;4.28;;;8.30;84.20;;;;;;5112563;28;20426;-72
2021/03/10 10:59:29;;;;;;;7.90;4.47;;;8.30;84.10;;;;;;5112603;28;20888;-72
2021/03/10 11:01:55;;;;;;;8.13;4.28;;;8.30;84.70;;;;;;5113029;28;20039;-74
2021/03/10 11:04:20;;;;;;;8.60;3.97;;;8.30;84.10;;;;;;5112873;28;20044;-73
2021/03/10 11:06:47;;;;;;;9.00;4.72;;;8.40;84.10;;;;;;5112227;28;20075;-74
2021/03/10 11:09:13;;;;;;;7.72;4.50;;;8.30;84.00;;;;;;5112484;28;20063;-73
2021/03/10 11:11:40;;;;;;;8.10;4.45;;;8.30;84.00;;;;;;5112293;28;20481;-73
2021/03/10 11:14:06;;;;;;;8.18;4.40;;;8.30;84.00;;;;;;5092477;28;20413;-73
2021/03/10 11:16:32;;;;;;;7.78;4.68;;;8.40;84.00;;;;;;5093692;28;20425;-73
2021/03/10 11:18:58;;;;;;;8.45;4.45;;;8.30;83.90;;;;;;5092800;28;20044;-73
2021/03/10 11:21:24;;;;;;;8.05;4.32;;;8.30;83.80;;;;;;5112258;28;20074;-73
2021/03/10 11:23:50;;;;;;;10.20;5.25;;;8.30;83.70;;;;;;5094028;28;20071;-72
2021/03/10 11:26:16;;;;;;;8.52;4.75;;;8.40;83.70;;;;;;5111805;28;20465;-73
2021/03/10 11:28:42;;;;;;;7.22;4.35;;;8.40;83.70;;;;;;5111878;28;20036;-73
2021/03/10 11:31:09;;;;;;;7.55;4.10;;;8.40;83.40;;;;;;5111614;28;20115;-72
2021/03/10 11:33:35;;;;;;;7.68;4.47;;;8.50;83.50;;;;;;5111258;28;20123;-74
2021/03/10 11:36:03;;;;;;;8.27;4.45;;;8.50;83.40;;;;;;5092735;28;20123;-74
2021/03/10 11:38:29;;;;;;;7.93;3.72;;;8.50;83.20;;;;;;5112018;28;20046;-74
2021/03/10 11:40:55;;;;;;;6.53;3.78;;;8.60;83.20;;;;;;5092064;28;20127;-74
2021/03/10 11:43:21;;;;;;;7.07;3.65;;;8.60;83.00;;;;;;5111913;28;20081;-74
2021/03/10 11:45:47;;;;;;;6.70;3.78;;;8.70;82.90;;;;;;5111826;28;20067;-73
2021/03/10 11:48:13;;;;;;;6.35;3.30;;;8.80;82.90;;;;;;5112505;28;20040;-73
2021/03/10 11:50:39;;;;;;;6.43;3.60;;;8.80;82.70;;;;;;5095247;28;20051;-73
2021/03/10 11:53:06;;;;;;;7.20;3.90;;;8.90;82.60;;;;;;5115590;28;20070;-73
2021/03/10 11:55:32;;;;;;;6.43;3.72;;;8.90;82.40;;;;;;5115871;28;20040;-73
2021/03/10 11:57:58;;;;;;;5.90;3.30;;;8.90;82.30;;;;;;5115298;28;20031;-74
2021/03/10 12:00:24;;;;;;;6.90;3.50;;;8.90;82.20;;;;;;5115630;28;20035;-74
2021/03/10 12:02:51;;;;;;;6.45;3.63;;;9.00;82.30;;;;;;5097049;28;20501;-74
2021/03/10 12:05:17;;;;;;;6.03;3.22;;;9.00;82.20;;;;;;5115448;28;20036;-74
2021/03/10 12:07:43;;;;;;;6.85;3.75;;;9.00;82.10;;;;;;5115610;28;20177;-74
2021/03/10 12:10:10;;;;;;;5.93;3.60;;;9.00;82.10;;;;;;5115423;28;20122;-74
2021/03/10 12:12:35;;;;;;;6.63;3.72;;;9.10;82.00;;;;;;5115141;28;20084;-75
2021/03/10 12:15:02;;;;;;;5.53;3.20;;;9.10;81.80;;;;;;5096928;28;20122;-73
2021/03/10 12:17:27;;;;;;;6.18;2.90;;;9.20;81.80;;;;;;5114930;28;20044;-74
2021/03/10 12:19:53;;;;;;;5.45;3.05;;;9.20;81.70;;;;;;5115127;28;20045;-73
2021/03/10 12:22:20;;;;;;;5.28;3.05;;;9.30;81.60;;;;;;5114898;28;20067;-73
2021/03/10 12:24:46;;;;;;;5.53;3.03;;;9.40;81.40;;;;;;5096740;28;20481;-73
2021/03/10 12:27:12;;;;;;;6.97;3.42;;;9.40;81.20;;;;;;5096689;28;20048;-74
2021/03/10 12:29:38;;;;;;;5.70;3.22;;;9.50;81.10;;;;;;5114737;28;20394;-75
2021/03/10 12:32:04;;;;;;;4.95;2.85;;;9.50;81.00;;;;;;5096339;28;20039;-73
2021/03/10 12:34:30;;;;;;;5.10;2.92;;;9.70;80.90;;;;;;5115267;28;20036;-73
2021/03/10 12:36:56;;;;;;;5.18;2.95;;;9.70;80.60;;;;;;5114799;28;20034;-74
2021/03/10 12:39:22;;;;;;;4.70;2.60;;;9.80;80.40;;;;;;5115243;28;20043;-74
2021/03/10 12:41:48;;;;;;;5.35;2.95;;;9.90;80.30;;;;;;5115195;28;20165;-75
2021/03/10 12:44:14;;;;;;;7.20;3.10;;;9.90;80.00;;;;;;5114828;28;20039;-74
2021/03/10 12:46:40;;;;;;;6.55;3.92;;;10.00;79.90;;;;;;5115098;28;20439;-75
2021/03/10 12:49:06;;;;;;;6.95;4.10;;;10.00;79.70;;;;;;5114904;28;20028;-75
2021/03/10 12:51:32;;;;;;;5.95;3.75;;;10.10;79.60;;;;;;5114710;28;20040;-76
2021/03/10 12:53:57;;;;;;;6.10;3.35;;;10.10;79.60;;;;;;5114727;28;20457;-73
2021/03/10 12:56:23;;;;;;;7.78;3.80;;;10.20;79.50;;;;;;5114590;28;20500;-73
2021/03/10 12:58:49;;;;;;;5.80;3.50;;;10.30;79.30;;;;;;5096050;28;20136;-73
2021/03/10 13:01:14;;;;;;;5.60;3.50;;;10.30;79.10;;;;;;5114934;28;20565;-72
2021/03/10 13:03:40;;;;;;;5.72;3.45;;;10.30;78.90;;;;;;5096322;28;20047;-72